createdAt,value
2019-03-19T00:01:08.338Z,68.30
2019-03-19T00:03:39.253Z,68.30
2019-03-19T00:06:10.048Z,68.30
2019-03-19T00:08:40.657Z,68.40
2019-03-19T00:11:11.352Z,68.50
2019-03-19T00:13:42.711Z,69.30
2019-03-19T00:16:13.502Z,68.50
2019-03-19T00:18:44.155Z,68.70
2019-03-19T00:21:15.032Z,68.70
2019-03-19T00:23:45.706Z,68.80
2019-03-19T00:26:16.375Z,68.80
2019-03-19T00:28:47.056Z,68.80
2019-03-19T00:31:17.713Z,68.90
2019-03-19T00:33:48.359Z,68.90
2019-03-19T00:36:19.178Z,68.90
2019-03-19T00:38:49.843Z,68.90
2019-03-19T00:41:20.423Z,68.80
2019-03-19T00:43:51.273Z,68.60
2019-03-19T00:46:21.901Z,68.50
2019-03-19T00:48:52.802Z,68.30
2019-03-19T00:51:23.514Z,68.30
2019-03-19T00:53:54.040Z,68.00
2019-03-19T00:56:24.602Z,68.00
2019-03-19T00:58:55.189Z,69.00
2019-03-19T01:01:25.802Z,68.40
2019-03-19T01:03:56.960Z,68.60
2019-03-19T01:06:27.681Z,68.80
2019-03-19T01:08:58.399Z,69.00
2019-03-19T01:11:29.039Z,69.10
2019-03-19T01:13:59.707Z,69.30
2019-03-19T01:16:30.460Z,69.40
2019-03-19T01:19:01.179Z,69.50
2019-03-19T01:21:31.973Z,69.60
2019-03-19T01:24:02.676Z,69.70
2019-03-19T01:26:33.335Z,69.70
2019-03-19T01:29:03.983Z,69.80
2019-03-19T01:31:34.572Z,69.60
2019-03-19T01:34:05.227Z,69.70
2019-03-19T01:36:36.192Z,69.80
2019-03-19T01:39:08.444Z,69.90
2019-03-19T01:41:39.134Z,70.10
2019-03-19T01:44:10.849Z,70.20
2019-03-19T01:46:41.527Z,70.30
2019-03-19T01:49:12.292Z,70.50
2019-03-19T01:51:42.894Z,70.60
2019-03-19T01:54:13.904Z,70.70
2019-03-19T01:56:45.597Z,70.90
2019-03-19T01:59:16.244Z,70.90
2019-03-19T02:01:46.955Z,71.00
2019-03-19T02:04:17.859Z,71.00
2019-03-19T02:06:48.586Z,71.20
2019-03-19T02:09:19.289Z,71.30
2019-03-19T02:11:50.333Z,71.30
2019-03-19T02:14:21.034Z,71.40
2019-03-19T02:16:51.936Z,71.30
2019-03-19T02:19:22.495Z,71.40
2019-03-19T02:21:54.160Z,71.40
2019-03-19T02:24:24.837Z,71.40
2019-03-19T02:26:55.517Z,71.60
2019-03-19T02:29:26.373Z,71.60
2019-03-19T02:31:57.128Z,71.60
2019-03-19T02:34:27.885Z,71.80
2019-03-19T02:36:58.532Z,71.90
2019-03-19T02:39:29.282Z,72.00
2019-03-19T02:42:00.592Z,72.00
2019-03-19T02:44:31.205Z,72.00
2019-03-19T02:47:01.850Z,72.10
2019-03-19T02:49:32.560Z,72.20
2019-03-19T02:52:03.219Z,72.20
2019-03-19T02:54:33.958Z,72.20
2019-03-19T02:57:04.699Z,72.20
2019-03-19T02:59:35.427Z,72.10
2019-03-19T03:02:06.228Z,72.00
2019-03-19T03:04:36.763Z,72.00
2019-03-19T03:07:07.486Z,72.00
2019-03-19T03:09:38.223Z,72.10
2019-03-19T03:12:09.309Z,72.00
2019-03-19T03:14:42.022Z,72.10
2019-03-19T03:17:12.716Z,72.00
2019-03-19T03:19:44.538Z,72.10
2019-03-19T03:22:15.610Z,72.10
2019-03-19T03:24:46.466Z,72.20
2019-03-19T03:27:17.236Z,72.30
2019-03-19T03:29:49.081Z,72.20
2019-03-19T03:32:20.021Z,72.30
2019-03-19T03:34:51.023Z,72.40
2019-03-19T03:37:21.886Z,72.50
2019-03-19T03:39:52.595Z,72.60
2019-03-19T03:42:23.328Z,72.70
2019-03-19T03:44:54.123Z,72.90
2019-03-19T03:47:24.806Z,72.90
2019-03-19T03:49:55.461Z,72.80
2019-03-19T03:52:26.119Z,72.70
2019-03-19T03:54:57.051Z,72.60
2019-03-19T03:57:27.607Z,72.60
2019-03-19T03:59:58.339Z,72.50
2019-03-19T04:02:29.951Z,72.50
2019-03-19T04:05:00.709Z,72.70
2019-03-19T04:07:31.496Z,73.00
2019-03-19T04:10:02.227Z,73.20
2019-03-19T04:12:33.267Z,73.40
2019-03-19T04:15:04.442Z,73.40
2019-03-19T04:17:35.001Z,73.20
2019-03-19T04:20:06.695Z,73.10
2019-03-19T04:22:37.415Z,72.90
2019-03-19T04:25:08.310Z,72.90
2019-03-19T04:27:40.579Z,72.70
2019-03-19T04:30:12.219Z,72.50
2019-03-19T04:32:42.985Z,72.50
2019-03-19T04:35:13.731Z,72.60
2019-03-19T04:37:44.504Z,72.90
2019-03-19T04:40:15.401Z,73.20
2019-03-19T04:42:46.367Z,73.30
2019-03-19T04:45:17.257Z,73.40
2019-03-19T04:47:47.929Z,73.50
2019-03-19T04:50:19.509Z,73.70
2019-03-19T04:52:50.223Z,73.70
2019-03-19T04:55:20.968Z,73.70
2019-03-19T04:57:51.667Z,73.70
2019-03-19T05:00:22.481Z,73.70
2019-03-19T05:02:53.120Z,74.00
2019-03-19T05:05:23.694Z,74.20
2019-03-19T05:07:54.532Z,74.20
2019-03-19T05:10:25.262Z,74.10
2019-03-19T05:12:56.211Z,73.90
2019-03-19T05:15:27.292Z,73.80
2019-03-19T05:17:58.210Z,73.80
2019-03-19T05:20:28.838Z,74.10
2019-03-19T05:22:59.604Z,74.10
2019-03-19T05:25:30.640Z,74.10
2019-03-19T05:28:01.374Z,74.20
2019-03-19T05:30:32.165Z,74.30
2019-03-19T05:33:02.982Z,74.10
2019-03-19T05:35:33.689Z,74.00
2019-03-19T05:38:05.408Z,74.00
2019-03-19T05:40:36.833Z,74.00
2019-03-19T05:43:07.691Z,74.00
2019-03-19T05:45:38.549Z,74.10
2019-03-19T05:48:09.223Z,74.00
2019-03-19T05:50:39.932Z,74.00
2019-03-19T05:53:10.658Z,74.00
2019-03-19T05:55:41.391Z,74.00
2019-03-19T05:58:12.322Z,74.10
2019-03-19T06:00:43.330Z,74.30
2019-03-19T06:03:14.079Z,74.50
2019-03-19T06:05:44.925Z,74.60
2019-03-19T06:08:16.603Z,74.90
2019-03-19T06:10:47.410Z,74.90
2019-03-19T06:13:18.398Z,75.00
2019-03-19T06:15:49.094Z,74.90
2019-03-19T06:18:19.681Z,74.70
2019-03-19T06:20:50.246Z,74.70
2019-03-19T06:23:21.166Z,74.60
2019-03-19T06:25:52.163Z,74.10
2019-03-19T06:28:22.862Z,72.60
2019-03-19T06:30:53.608Z,72.40
2019-03-19T06:33:24.264Z,71.10
2019-03-19T06:35:55.239Z,70.60
2019-03-19T06:38:26.338Z,70.70
2019-03-19T06:40:57.531Z,70.80
2019-03-19T06:43:29.802Z,71.10
2019-03-19T06:46:00.822Z,71.10
2019-03-19T06:48:31.745Z,71.10
2019-03-19T06:51:02.658Z,71.20
2019-03-19T06:53:33.865Z,71.30
2019-03-19T06:56:05.001Z,71.40
2019-03-19T06:58:35.809Z,71.00
2019-03-19T07:01:06.675Z,70.30
2019-03-19T07:03:38.299Z,70.40
2019-03-19T07:06:09.131Z,70.50
2019-03-19T07:08:39.911Z,70.60
2019-03-19T07:11:10.846Z,70.80
2019-03-19T07:13:41.536Z,71.00
2019-03-19T07:16:12.160Z,71.00
2019-03-19T07:18:42.822Z,71.20
2019-03-19T07:21:13.654Z,68.80
2019-03-19T07:23:44.365Z,60.10
2019-03-19T07:26:15.161Z,54.30
2019-03-19T07:28:45.744Z,50.30
2019-03-19T07:31:17.005Z,46.70
2019-03-19T07:33:47.774Z,44.70
2019-03-19T07:36:18.455Z,45.80
2019-03-19T07:38:49.049Z,47.00
2019-03-19T07:41:19.596Z,45.30
2019-03-19T07:43:50.187Z,43.20
2019-03-19T07:46:20.863Z,41.80
2019-03-19T07:48:51.546Z,40.50
2019-03-19T07:51:22.160Z,39.40
2019-03-19T07:53:52.886Z,38.20
2019-03-19T07:56:23.524Z,36.80
2019-03-19T07:58:54.655Z,35.80
2019-03-19T08:01:25.718Z,35.30
2019-03-19T08:03:56.538Z,34.40
2019-03-19T08:06:27.321Z,33.70
2019-03-19T08:08:58.026Z,33.30
2019-03-19T08:11:28.575Z,32.40
2019-03-19T08:14:01.036Z,31.50
2019-03-19T08:16:31.939Z,30.90
2019-03-19T08:19:02.548Z,30.50
2019-03-19T08:21:34.794Z,30.10
2019-03-19T08:24:05.582Z,29.80
2019-03-19T08:26:36.522Z,29.00
2019-03-19T08:29:07.201Z,28.50
2019-03-19T08:31:39.299Z,28.00
2019-03-19T08:34:10.803Z,27.50
2019-03-19T08:36:44.477Z,27.30
2019-03-19T08:39:15.467Z,27.00
2019-03-19T08:41:46.638Z,26.60
2019-03-19T08:44:27.261Z,25.80
2019-03-19T08:46:49.802Z,26.00
2019-03-19T08:49:22.272Z,26.60
2019-03-19T08:51:56.509Z,26.50
2019-03-19T08:54:27.358Z,26.50
2019-03-19T08:57:01.422Z,26.20
2019-03-19T08:59:32.251Z,25.80
2019-03-19T09:02:03.618Z,25.20
2019-03-19T09:04:34.576Z,24.70
2019-03-19T09:07:05.399Z,24.30
2019-03-19T09:09:36.199Z,24.30
2019-03-19T09:12:07.446Z,24.30
2019-03-19T09:14:38.146Z,24.00
2019-03-19T09:17:09.254Z,23.50
2019-03-19T09:19:39.995Z,23.30
2019-03-19T09:22:10.638Z,23.20
2019-03-19T09:24:41.307Z,22.90
2019-03-19T09:27:12.321Z,22.60
2019-03-19T09:29:43.097Z,22.50
2019-03-19T09:32:14.222Z,22.10
2019-03-19T09:34:45.079Z,21.90
2019-03-19T09:37:15.757Z,21.60
2019-03-19T09:39:46.703Z,21.30
2019-03-19T09:42:17.434Z,21.30
2019-03-19T09:44:58.000Z,21.20
2019-03-19T09:47:20.551Z,22.30
2019-03-19T09:49:51.300Z,22.50
2019-03-19T09:52:21.994Z,21.70
2019-03-19T09:54:52.727Z,21.60
2019-03-19T09:57:23.425Z,21.20
2019-03-19T09:59:54.399Z,22.20
2019-03-19T10:02:25.021Z,23.50
2019-03-19T10:04:55.971Z,22.80
2019-03-19T10:07:26.579Z,22.00
2019-03-19T10:09:57.249Z,21.30
2019-03-19T10:12:28.433Z,22.30
2019-03-19T10:14:59.158Z,22.00
2019-03-19T10:17:29.853Z,22.20
2019-03-19T10:20:00.575Z,22.30
2019-03-19T10:22:31.171Z,21.90
2019-03-19T10:25:02.008Z,21.40
2019-03-19T10:27:34.007Z,22.30
2019-03-19T10:30:08.381Z,22.60
2019-03-19T10:32:38.943Z,21.90
2019-03-19T10:35:09.755Z,21.40
2019-03-19T10:37:40.412Z,22.00
2019-03-19T10:40:12.251Z,22.50
2019-03-19T10:42:42.909Z,23.00
2019-03-19T10:45:13.632Z,23.40
2019-03-19T10:47:44.508Z,23.90
2019-03-19T10:50:19.290Z,24.60
2019-03-19T10:52:50.912Z,25.00
2019-03-19T10:55:38.315Z,25.90
2019-03-19T10:58:11.182Z,25.90
2019-03-19T11:00:41.360Z,26.10
2019-03-19T11:03:12.038Z,26.50
2019-03-19T11:05:42.662Z,26.80
2019-03-19T11:08:13.398Z,27.00
2019-03-19T11:10:44.059Z,27.20
2019-03-19T11:13:14.747Z,27.30
2019-03-19T11:15:45.370Z,27.40
2019-03-19T11:18:15.983Z,27.50
2019-03-19T11:20:46.891Z,27.50
2019-03-19T11:23:17.897Z,27.30
2019-03-19T11:25:54.365Z,27.20
2019-03-19T11:28:20.989Z,27.70
2019-03-19T11:30:51.558Z,28.10
2019-03-19T11:33:22.227Z,27.90
2019-03-19T11:35:52.871Z,27.80
2019-03-19T11:38:24.890Z,28.00
2019-03-19T11:40:55.610Z,28.00
2019-03-19T11:43:26.306Z,27.80
2019-03-19T11:45:56.914Z,27.70
2019-03-19T11:48:27.910Z,27.60
2019-03-19T11:50:58.516Z,27.40
2019-03-19T11:53:29.158Z,27.40
2019-03-19T11:55:59.817Z,27.50
2019-03-19T11:58:30.808Z,27.60
2019-03-19T12:01:01.937Z,27.50
2019-03-19T12:03:32.683Z,27.30
2019-03-19T12:06:03.425Z,27.50
2019-03-19T12:08:34.126Z,27.50
2019-03-19T12:11:04.800Z,27.50
2019-03-19T12:13:35.527Z,27.40
2019-03-19T12:16:06.220Z,27.50
2019-03-19T12:18:36.802Z,27.50
2019-03-19T12:21:07.468Z,27.50
2019-03-19T12:23:38.076Z,27.60
2019-03-19T12:26:08.747Z,27.90
2019-03-19T12:28:40.055Z,28.10
2019-03-19T12:31:10.782Z,28.30
2019-03-19T12:33:42.545Z,28.60
2019-03-19T12:36:13.191Z,28.70
2019-03-19T12:38:43.979Z,28.70
2019-03-19T12:41:14.710Z,28.60
2019-03-19T12:43:45.269Z,28.50
2019-03-19T12:46:15.898Z,28.50
2019-03-19T12:48:46.669Z,28.30
2019-03-19T12:51:17.278Z,28.20
2019-03-19T12:53:48.015Z,28.20
2019-03-19T12:56:18.872Z,28.00
2019-03-19T12:58:49.380Z,28.10
2019-03-19T13:01:20.098Z,28.10
2019-03-19T13:03:50.806Z,28.20
2019-03-19T13:06:21.430Z,28.30
2019-03-19T13:08:52.019Z,28.40
2019-03-19T13:11:22.636Z,28.40
2019-03-19T13:13:53.226Z,28.40
2019-03-19T13:16:23.895Z,28.50
2019-03-19T13:18:54.533Z,28.50
2019-03-19T13:21:26.069Z,28.60
2019-03-19T13:23:56.773Z,28.60
2019-03-19T13:26:27.461Z,28.60
2019-03-19T13:28:58.045Z,28.80
2019-03-19T13:31:28.623Z,28.90
2019-03-19T13:33:59.298Z,29.10
2019-03-19T13:36:29.920Z,29.10
2019-03-19T13:39:00.932Z,29.20
2019-03-19T13:41:33.172Z,29.30
2019-03-19T13:44:03.769Z,29.40
2019-03-19T13:46:34.271Z,29.40
2019-03-19T13:49:04.810Z,29.60
2019-03-19T13:51:35.473Z,29.50
2019-03-19T13:54:06.705Z,29.50
2019-03-19T13:56:37.447Z,29.50
2019-03-19T13:59:08.098Z,29.50
2019-03-19T14:01:38.894Z,29.50
2019-03-19T14:04:09.639Z,29.70
2019-03-19T14:06:58.435Z,29.70
2019-03-19T14:09:29.129Z,29.90
2019-03-19T14:11:59.827Z,30.00
2019-03-19T14:14:30.524Z,30.00
2019-03-19T14:17:01.570Z,30.10
2019-03-19T14:19:32.200Z,30.00
2019-03-19T14:22:02.768Z,30.20
2019-03-19T14:24:33.496Z,30.40
2019-03-19T14:27:04.019Z,30.60
2019-03-19T14:29:34.695Z,30.40
2019-03-19T14:32:05.602Z,30.30
2019-03-19T14:34:36.511Z,30.20
2019-03-19T14:37:07.194Z,30.30
2019-03-19T14:39:37.868Z,30.30
2019-03-19T14:42:08.480Z,30.30
2019-03-19T14:44:39.101Z,30.30
2019-03-19T14:47:09.671Z,30.20
2019-03-19T14:49:46.983Z,30.30
2019-03-19T14:52:12.836Z,30.50
2019-03-19T14:54:43.974Z,30.60
2019-03-19T14:57:14.930Z,30.90
2019-03-19T14:59:45.629Z,31.10
2019-03-19T15:02:16.514Z,31.20
2019-03-19T15:04:47.506Z,31.30
2019-03-19T15:07:18.361Z,31.40
2019-03-19T15:09:49.000Z,31.60
2019-03-19T15:12:19.687Z,31.80
2019-03-19T15:14:50.331Z,31.90
2019-03-19T15:17:21.055Z,31.90
2019-03-19T15:19:51.746Z,31.90
2019-03-19T15:22:32.165Z,32.00
2019-03-19T15:24:55.430Z,32.00
2019-03-19T15:27:26.185Z,32.10
2019-03-19T15:29:56.960Z,32.10
2019-03-19T15:32:28.446Z,32.20
2019-03-19T15:34:59.026Z,32.10
2019-03-19T15:37:29.742Z,32.10
2019-03-19T15:40:01.043Z,32.20
2019-03-19T15:42:31.719Z,32.20
2019-03-19T15:45:02.482Z,32.30
2019-03-19T15:47:34.270Z,32.20
2019-03-19T15:50:06.229Z,32.30
2019-03-19T15:52:37.175Z,32.30
2019-03-19T15:55:07.790Z,32.30
2019-03-19T15:57:38.706Z,32.40
2019-03-19T16:00:12.021Z,32.50
2019-03-19T16:02:44.996Z,32.50
2019-03-19T16:05:15.535Z,32.60
2019-03-19T16:07:46.283Z,32.70
2019-03-19T16:10:16.920Z,32.80
2019-03-19T16:12:47.520Z,32.90
2019-03-19T16:15:18.877Z,32.90
2019-03-19T16:17:49.772Z,32.90
2019-03-19T16:20:23.476Z,32.90
2019-03-19T16:22:54.265Z,32.80
2019-03-19T16:25:25.485Z,32.80
2019-03-19T16:27:56.329Z,32.90
2019-03-19T16:30:27.085Z,33.00
2019-03-19T16:32:57.691Z,32.90
2019-03-19T16:35:28.758Z,33.20
2019-03-19T16:37:59.865Z,33.50
2019-03-19T16:40:30.595Z,33.40
2019-03-19T16:43:01.363Z,33.70
2019-03-19T16:45:32.177Z,33.80
2019-03-19T16:48:02.892Z,34.00
2019-03-19T16:50:33.821Z,34.10
2019-03-19T16:53:04.709Z,34.20
2019-03-19T16:55:35.468Z,34.40
2019-03-19T16:58:06.014Z,34.40
2019-03-19T17:00:36.605Z,34.60
2019-03-19T17:03:07.315Z,34.70
2019-03-19T17:05:38.360Z,34.80
2019-03-19T17:08:09.050Z,34.80
2019-03-19T17:10:39.726Z,35.00
2019-03-19T17:13:10.819Z,35.60
2019-03-19T17:15:41.482Z,35.00
2019-03-19T17:18:12.240Z,35.10
2019-03-19T17:20:42.779Z,35.20
2019-03-19T17:23:13.470Z,35.30
2019-03-19T17:25:44.061Z,35.50
2019-03-19T17:28:22.050Z,35.50
2019-03-19T17:30:47.053Z,35.70
2019-03-19T17:33:17.795Z,35.80
2019-03-19T17:35:48.350Z,35.90
2019-03-19T17:38:19.000Z,36.00
2019-03-19T17:40:49.618Z,36.00
2019-03-19T17:43:20.283Z,36.10
2019-03-19T17:45:50.831Z,36.30
2019-03-19T17:48:21.419Z,36.30
2019-03-19T17:50:52.939Z,36.40
2019-03-19T17:53:23.724Z,36.50
2019-03-19T17:55:54.313Z,37.30
2019-03-19T17:58:24.987Z,36.70
2019-03-19T18:00:55.773Z,36.80
2019-03-19T18:03:26.755Z,36.90
2019-03-19T18:05:57.484Z,36.90
2019-03-19T18:08:28.135Z,36.90
2019-03-19T18:10:58.899Z,37.10
2019-03-19T18:13:29.537Z,37.20
2019-03-19T18:16:00.201Z,37.30
2019-03-19T18:18:30.922Z,37.30
2019-03-19T18:21:02.530Z,37.50
2019-03-19T18:23:33.439Z,37.50
2019-03-19T18:26:05.074Z,37.60
2019-03-19T18:28:36.043Z,37.60
2019-03-19T18:31:06.655Z,37.70
2019-03-19T18:33:37.262Z,37.80
2019-03-19T18:36:07.892Z,37.80
2019-03-19T18:38:38.645Z,38.00
2019-03-19T18:41:09.778Z,38.00
2019-03-19T18:43:40.421Z,38.10
2019-03-19T18:46:11.365Z,38.20
2019-03-19T18:48:42.076Z,38.30
2019-03-19T18:51:12.713Z,38.30
2019-03-19T18:53:43.387Z,38.40
2019-03-19T18:56:13.892Z,38.50
2019-03-19T18:58:44.947Z,38.50
2019-03-19T19:01:15.882Z,38.60
2019-03-19T19:03:46.590Z,38.70
2019-03-19T19:06:17.251Z,38.70
2019-03-19T19:08:47.943Z,38.80
2019-03-19T19:11:18.640Z,38.80
2019-03-19T19:13:49.207Z,38.90
2019-03-19T19:16:19.783Z,39.10
2019-03-19T19:18:50.321Z,39.20
2019-03-19T19:21:21.862Z,39.20
2019-03-19T19:23:52.544Z,39.40
2019-03-19T19:26:23.195Z,39.60
2019-03-19T19:28:56.722Z,39.60
2019-03-19T19:31:27.426Z,39.70
2019-03-19T19:33:58.265Z,39.70
2019-03-19T19:36:29.093Z,39.80
2019-03-19T19:38:59.683Z,40.00
2019-03-19T19:41:30.532Z,40.10
2019-03-19T19:44:02.285Z,40.20
2019-03-19T19:46:33.014Z,40.30
2019-03-19T19:49:03.856Z,40.30
2019-03-19T19:51:34.496Z,40.40
2019-03-19T19:54:05.129Z,40.50
2019-03-19T19:56:36.811Z,40.60
2019-03-19T19:59:07.576Z,40.70
2019-03-19T20:01:38.397Z,40.70
2019-03-19T20:04:10.517Z,40.80
2019-03-19T20:06:42.208Z,41.10
2019-03-19T20:09:14.117Z,41.00
2019-03-19T20:11:46.570Z,41.10
2019-03-19T20:14:18.516Z,41.10
2019-03-19T20:16:50.969Z,41.30
2019-03-19T20:19:21.939Z,41.40
2019-03-19T20:21:53.448Z,41.60
2019-03-19T20:24:24.939Z,41.60
2019-03-19T20:26:56.360Z,41.60
2019-03-19T20:29:27.680Z,41.70
2019-03-19T20:32:00.684Z,41.80
2019-03-19T20:34:32.077Z,41.80
2019-03-19T20:37:03.225Z,41.90
2019-03-19T20:39:34.222Z,42.10
2019-03-19T20:42:05.962Z,42.10
2019-03-19T20:44:37.002Z,42.20
2019-03-19T20:49:27.750Z,42.20
2019-03-19T20:51:58.502Z,42.30
2019-03-19T20:54:29.682Z,42.50
2019-03-19T20:57:00.416Z,42.50
2019-03-19T20:59:31.520Z,42.50
2019-03-19T21:02:02.818Z,42.50
2019-03-19T21:04:36.611Z,42.50
2019-03-19T21:07:07.296Z,42.60
2019-03-19T21:09:37.935Z,42.70
2019-03-19T21:12:08.726Z,42.80
2019-03-19T21:14:39.473Z,42.90
2019-03-19T21:17:10.567Z,43.50
2019-03-19T21:19:41.375Z,43.10
2019-03-19T21:22:12.101Z,43.10
2019-03-19T21:24:42.897Z,43.20
2019-03-19T21:27:14.773Z,43.40
2019-03-19T21:29:45.492Z,44.10
2019-03-19T21:32:16.787Z,43.80
2019-03-19T21:34:47.770Z,43.60
2019-03-19T21:37:18.514Z,43.70
2019-03-19T21:39:49.211Z,43.70
2019-03-19T21:42:19.913Z,43.80
2019-03-19T21:44:50.604Z,43.80
2019-03-19T21:47:21.415Z,44.00
2019-03-19T21:49:52.146Z,44.00
2019-03-19T21:52:23.224Z,44.10
2019-03-19T21:54:54.020Z,44.10
2019-03-19T21:57:24.691Z,44.20
2019-03-19T21:59:55.383Z,44.30
2019-03-19T22:02:25.955Z,44.40
2019-03-19T22:04:56.654Z,44.50
2019-03-19T22:07:27.423Z,45.10
2019-03-19T22:09:59.152Z,44.60
2019-03-19T22:12:29.943Z,44.60
2019-03-19T22:15:00.496Z,44.80
2019-03-19T22:17:31.344Z,44.80
2019-03-19T22:20:02.031Z,44.80
2019-03-19T22:22:33.090Z,44.90
2019-03-19T22:25:03.745Z,44.90
2019-03-19T22:27:34.375Z,45.00
2019-03-19T22:30:06.327Z,45.00
2019-03-19T22:32:36.998Z,45.10
2019-03-19T22:35:08.717Z,45.20
2019-03-19T22:37:39.570Z,45.30
2019-03-19T22:40:11.702Z,45.40
2019-03-19T22:42:42.292Z,45.30
2019-03-19T22:45:13.936Z,45.30
2019-03-19T22:47:44.655Z,45.30
2019-03-19T22:50:15.413Z,45.40
2019-03-19T22:52:46.202Z,45.50
2019-03-19T22:55:28.218Z,45.60
2019-03-19T22:57:52.854Z,45.60
2019-03-19T23:00:41.499Z,45.70
2019-03-19T23:03:12.730Z,46.40
2019-03-19T23:05:43.495Z,45.70
2019-03-19T23:08:14.165Z,45.80
2019-03-19T23:10:44.690Z,45.90
2019-03-19T23:13:15.484Z,45.90
2019-03-19T23:15:46.099Z,46.00
2019-03-19T23:18:17.285Z,46.10
2019-03-19T23:20:49.304Z,46.20
2019-03-19T23:23:19.849Z,46.20
2019-03-19T23:25:50.503Z,46.30
2019-03-19T23:28:21.257Z,46.40
2019-03-19T23:30:52.087Z,46.40
2019-03-19T23:33:22.801Z,46.40
2019-03-19T23:35:53.492Z,46.50
2019-03-19T23:38:24.044Z,46.70
2019-03-19T23:40:54.597Z,46.50
2019-03-19T23:43:25.182Z,46.60
2019-03-19T23:45:55.812Z,46.80
2019-03-19T23:48:26.523Z,46.80
2019-03-19T23:50:57.294Z,46.80
2019-03-19T23:53:27.982Z,46.90
2019-03-19T23:55:58.641Z,47.00
2019-03-19T23:58:29.204Z,47.10
